sensor_id;sensor_type;location;lat;lon;timestamp;P1;durP1;ratioP1;P2;durP2;ratioP2
7613;SDS011;3848;42.016;23.098;2024-02-15T00:00:49;7.10;;;4.57;;
7613;SDS011;3848;42.016;23.098;2024-02-15T00:03:19;10.70;;;4.20;;
7613;SDS011;3848;42.016;23.098;2024-02-15T00:05:47;5.43;;;3.60;;
7613;SDS011;3848;42.016;23.098;2024-02-15T00:08:14;6.17;;;4.10;;
7613;SDS011;3848;42.016;23.098;2024-02-15T00:10:41;5.93;;;3.77;;
7613;SDS011;3848;42.016;23.098;2024-02-15T00:13:10;5.93;;;3.93;;
7613;SDS011;3848;42.016;23.098;2024-02-15T00:15:37;5.37;;;3.87;;
7613;SDS011;3848;42.016;23.098;2024-02-15T00:18:04;5.80;;;3.60;;
7613;SDS011;3848;42.016;23.098;2024-02-15T00:20:33;6.03;;;4.13;;
7613;SDS011;3848;42.016;23.098;2024-02-15T00:23:00;4.13;;;3.60;;
7613;SDS011;3848;42.016;23.098;2024-02-15T00:25:27;3.77;;;3.47;;
7613;SDS011;3848;42.016;23.098;2024-02-15T00:27:55;8.43;;;3.57;;
7613;SDS011;3848;42.016;23.098;2024-02-15T00:30:22;7.47;;;3.63;;
7613;SDS011;3848;42.016;23.098;2024-02-15T00:32:49;7.10;;;3.80;;
7613;SDS011;3848;42.016;23.098;2024-02-15T00:35:16;9.07;;;4.23;;
7613;SDS011;3848;42.016;23.098;2024-02-15T00:37:45;6.93;;;3.80;;
7613;SDS011;3848;42.016;23.098;2024-02-15T00:40:12;7.47;;;3.93;;
7613;SDS011;3848;42.016;23.098;2024-02-15T00:42:39;4.43;;;3.80;;
7613;SDS011;3848;42.016;23.098;2024-02-15T00:45:06;4.47;;;3.73;;
7613;SDS011;3848;42.016;23.098;2024-02-15T00:47:34;6.37;;;4.33;;
7613;SDS011;3848;42.016;23.098;2024-02-15T00:50:02;5.43;;;4.37;;
7613;SDS011;3848;42.016;23.098;2024-02-15T00:52:29;6.07;;;3.97;;
7613;SDS011;3848;42.016;23.098;2024-02-15T00:54:58;7.73;;;4.53;;
7613;SDS011;3848;42.016;23.098;2024-02-15T00:57:25;7.70;;;4.50;;
7613;SDS011;3848;42.016;23.098;2024-02-15T00:59:52;6.27;;;4.60;;
7613;SDS011;3848;42.016;23.098;2024-02-15T01:02:19;7.83;;;4.83;;
7613;SDS011;3848;42.016;23.098;2024-02-15T01:04:47;5.47;;;4.30;;
7613;SDS011;3848;42.016;23.098;2024-02-15T01:07:14;7.27;;;4.50;;
7613;SDS011;3848;42.016;23.098;2024-02-15T01:09:41;9.20;;;5.50;;
7613;SDS011;3848;42.016;23.098;2024-02-15T01:12:09;5.27;;;4.37;;
7613;SDS011;3848;42.016;23.098;2024-02-15T01:14:36;6.47;;;4.30;;
7613;SDS011;3848;42.016;23.098;2024-02-15T01:17:04;5.67;;;4.30;;
7613;SDS011;3848;42.016;23.098;2024-02-15T01:19:31;4.40;;;4.00;;
7613;SDS011;3848;42.016;23.098;2024-02-15T01:21:57;6.27;;;3.40;;
7613;SDS011;3848;42.016;23.098;2024-02-15T01:24:24;4.87;;;4.17;;
7613;SDS011;3848;42.016;23.098;2024-02-15T01:26:52;5.73;;;4.20;;
7613;SDS011;3848;42.016;23.098;2024-02-15T01:29:21;4.87;;;4.27;;
7613;SDS011;3848;42.016;23.098;2024-02-15T01:31:48;4.40;;;3.53;;
7613;SDS011;3848;42.016;23.098;2024-02-15T01:34:15;4.33;;;3.90;;
7613;SDS011;3848;42.016;23.098;2024-02-15T01:36:41;5.60;;;4.40;;
7613;SDS011;3848;42.016;23.098;2024-02-15T01:39:08;5.27;;;4.60;;
7613;SDS011;3848;42.016;23.098;2024-02-15T01:41:35;4.67;;;3.60;;
7613;SDS011;3848;42.016;23.098;2024-02-15T01:44:03;4.60;;;4.13;;
7613;SDS011;3848;42.016;23.098;2024-02-15T01:46:32;5.97;;;4.03;;
7613;SDS011;3848;42.016;23.098;2024-02-15T01:49:00;7.40;;;4.33;;
7613;SDS011;3848;42.016;23.098;2024-02-15T01:51:27;7.17;;;4.43;;
7613;SDS011;3848;42.016;23.098;2024-02-15T01:53:54;6.40;;;4.80;;
7613;SDS011;3848;42.016;23.098;2024-02-15T01:56:22;4.80;;;4.10;;
7613;SDS011;3848;42.016;23.098;2024-02-15T01:58:52;6.20;;;4.70;;
7613;SDS011;3848;42.016;23.098;2024-02-15T02:01:19;4.97;;;4.27;;
7613;SDS011;3848;42.016;23.098;2024-02-15T02:03:49;6.23;;;4.40;;
7613;SDS011;3848;42.016;23.098;2024-02-15T02:06:16;8.23;;;4.90;;
7613;SDS011;3848;42.016;23.098;2024-02-15T02:08:43;9.73;;;4.80;;
7613;SDS011;3848;42.016;23.098;2024-02-15T02:11:10;6.27;;;4.90;;
7613;SDS011;3848;42.016;23.098;2024-02-15T02:13:37;5.13;;;4.63;;
7613;SDS011;3848;42.016;23.098;2024-02-15T02:16:04;6.67;;;4.73;;
7613;SDS011;3848;42.016;23.098;2024-02-15T02:18:53;4.87;;;4.30;;
7613;SDS011;3848;42.016;23.098;2024-02-15T02:21:20;11.20;;;5.93;;
7613;SDS011;3848;42.016;23.098;2024-02-15T02:23:49;13.63;;;4.47;;
7613;SDS011;3848;42.016;23.098;2024-02-15T02:26:20;10.47;;;4.37;;
7613;SDS011;3848;42.016;23.098;2024-02-15T02:28:48;7.80;;;4.33;;
7613;SDS011;3848;42.016;23.098;2024-02-15T02:31:18;4.80;;;4.03;;
7613;SDS011;3848;42.016;23.098;2024-02-15T02:33:47;6.70;;;4.70;;
7613;SDS011;3848;42.016;23.098;2024-02-15T02:36:18;6.37;;;4.23;;
7613;SDS011;3848;42.016;23.098;2024-02-15T02:38:45;4.57;;;4.10;;
7613;SDS011;3848;42.016;23.098;2024-02-15T02:41:15;6.83;;;4.63;;
7613;SDS011;3848;42.016;23.098;2024-02-15T02:43:43;8.37;;;4.63;;
7613;SDS011;3848;42.016;23.098;2024-02-15T02:46:10;7.03;;;4.33;;
7613;SDS011;3848;42.016;23.098;2024-02-15T02:48:38;6.40;;;4.63;;
7613;SDS011;3848;42.016;23.098;2024-02-15T02:51:06;8.20;;;4.90;;
7613;SDS011;3848;42.016;23.098;2024-02-15T02:53:33;8.73;;;5.00;;
7613;SDS011;3848;42.016;23.098;2024-02-15T02:56:00;7.77;;;4.60;;
7613;SDS011;3848;42.016;23.098;2024-02-15T02:58:29;6.93;;;4.80;;
7613;SDS011;3848;42.016;23.098;2024-02-15T03:00:57;8.53;;;5.10;;
7613;SDS011;3848;42.016;23.098;2024-02-15T03:03:25;6.63;;;4.40;;
7613;SDS011;3848;42.016;23.098;2024-02-15T03:05:52;9.50;;;4.77;;
7613;SDS011;3848;42.016;23.098;2024-02-15T03:08:20;12.00;;;4.90;;
7613;SDS011;3848;42.016;23.098;2024-02-15T03:10:47;10.40;;;4.80;;
7613;SDS011;3848;42.016;23.098;2024-02-15T03:13:14;6.83;;;4.47;;
7613;SDS011;3848;42.016;23.098;2024-02-15T03:15:44;5.50;;;4.67;;
7613;SDS011;3848;42.016;23.098;2024-02-15T03:18:14;7.03;;;5.07;;
7613;SDS011;3848;42.016;23.098;2024-02-15T03:20:41;6.57;;;4.90;;
7613;SDS011;3848;42.016;23.098;2024-02-15T03:23:08;11.90;;;5.27;;
7613;SDS011;3848;42.016;23.098;2024-02-15T03:25:36;8.43;;;5.10;;
7613;SDS011;3848;42.016;23.098;2024-02-15T03:28:03;10.83;;;4.70;;
7613;SDS011;3848;42.016;23.098;2024-02-15T03:30:31;6.53;;;4.60;;
7613;SDS011;3848;42.016;23.098;2024-02-15T03:32:59;6.67;;;5.13;;
7613;SDS011;3848;42.016;23.098;2024-02-15T03:35:27;9.20;;;5.10;;
7613;SDS011;3848;42.016;23.098;2024-02-15T03:37:56;7.90;;;5.23;;
7613;SDS011;3848;42.016;23.098;2024-02-15T03:40:24;5.00;;;4.50;;
7613;SDS011;3848;42.016;23.098;2024-02-15T03:42:52;9.23;;;4.37;;
7613;SDS011;3848;42.016;23.098;2024-02-15T03:45:19;7.50;;;4.97;;
7613;SDS011;3848;42.016;23.098;2024-02-15T03:47:50;4.73;;;4.07;;
7613;SDS011;3848;42.016;23.098;2024-02-15T03:50:17;10.70;;;4.77;;
7613;SDS011;3848;42.016;23.098;2024-02-15T03:52:48;8.67;;;4.83;;
7613;SDS011;3848;42.016;23.098;2024-02-15T03:55:15;9.03;;;5.13;;
7613;SDS011;3848;42.016;23.098;2024-02-15T03:57:42;6.17;;;4.73;;
7613;SDS011;3848;42.016;23.098;2024-02-15T04:00:11;8.30;;;4.93;;
7613;SDS011;3848;42.016;23.098;2024-02-15T04:02:39;6.23;;;4.93;;
7613;SDS011;3848;42.016;23.098;2024-02-15T04:05:06;7.50;;;5.10;;
7613;SDS011;3848;42.016;23.098;2024-02-15T04:07:34;6.13;;;4.93;;
7613;SDS011;3848;42.016;23.098;2024-02-15T04:10:05;7.93;;;4.87;;
7613;SDS011;3848;42.016;23.098;2024-02-15T04:12:33;5.50;;;5.00;;
7613;SDS011;3848;42.016;23.098;2024-02-15T04:15:00;7.00;;;4.60;;
7613;SDS011;3848;42.016;23.098;2024-02-15T04:17:31;5.63;;;4.73;;
7613;SDS011;3848;42.016;23.098;2024-02-15T04:20:00;6.13;;;4.70;;
7613;SDS011;3848;42.016;23.098;2024-02-15T04:22:29;11.87;;;4.87;;
7613;SDS011;3848;42.016;23.098;2024-02-15T04:24:57;6.03;;;4.67;;
7613;SDS011;3848;42.016;23.098;2024-02-15T04:27:25;17.73;;;7.67;;
7613;SDS011;3848;42.016;23.098;2024-02-15T04:29:52;7.77;;;5.50;;
7613;SDS011;3848;42.016;23.098;2024-02-15T04:32:20;7.53;;;5.13;;
7613;SDS011;3848;42.016;23.098;2024-02-15T04:34:48;11.67;;;6.63;;
7613;SDS011;3848;42.016;23.098;2024-02-15T04:37:15;8.70;;;5.93;;
7613;SDS011;3848;42.016;23.098;2024-02-15T04:39:43;8.60;;;6.03;;
7613;SDS011;3848;42.016;23.098;2024-02-15T04:42:12;6.73;;;5.13;;
7613;SDS011;3848;42.016;23.098;2024-02-15T04:44:41;9.70;;;5.70;;
7613;SDS011;3848;42.016;23.098;2024-02-15T04:47:09;7.93;;;5.00;;
7613;SDS011;3848;42.016;23.098;2024-02-15T04:49:36;6.23;;;4.83;;
7613;SDS011;3848;42.016;23.098;2024-02-15T04:52:03;10.47;;;5.23;;
7613;SDS011;3848;42.016;23.098;2024-02-15T04:54:31;6.60;;;5.33;;
7613;SDS011;3848;42.016;23.098;2024-02-15T04:56:59;12.33;;;6.30;;
7613;SDS011;3848;42.016;23.098;2024-02-15T04:59:26;12.93;;;5.13;;
7613;SDS011;3848;42.016;23.098;2024-02-15T05:01:55;7.03;;;5.13;;
7613;SDS011;3848;42.016;23.098;2024-02-15T05:04:25;8.03;;;5.33;;
7613;SDS011;3848;42.016;23.098;2024-02-15T05:06:52;14.37;;;6.10;;
7613;SDS011;3848;42.016;23.098;2024-02-15T05:09:20;19.70;;;6.03;;
7613;SDS011;3848;42.016;23.098;2024-02-15T05:11:48;11.73;;;5.73;;
7613;SDS011;3848;42.016;23.098;2024-02-15T05:14:15;8.90;;;6.00;;
7613;SDS011;3848;42.016;23.098;2024-02-15T05:16:44;9.13;;;6.00;;
7613;SDS011;3848;42.016;23.098;2024-02-15T05:19:14;15.37;;;6.50;;
7613;SDS011;3848;42.016;23.098;2024-02-15T05:21:42;9.60;;;5.87;;
7613;SDS011;3848;42.016;23.098;2024-02-15T05:24:11;6.93;;;5.17;;
7613;SDS011;3848;42.016;23.098;2024-02-15T05:26:39;11.97;;;6.63;;
7613;SDS011;3848;42.016;23.098;2024-02-15T05:29:08;9.57;;;6.10;;
7613;SDS011;3848;42.016;23.098;2024-02-15T05:31:36;6.73;;;5.27;;
7613;SDS011;3848;42.016;23.098;2024-02-15T05:34:05;11.07;;;5.50;;
7613;SDS011;3848;42.016;23.098;2024-02-15T05:36:37;9.03;;;5.50;;
7613;SDS011;3848;42.016;23.098;2024-02-15T05:39:05;10.43;;;5.77;;
7613;SDS011;3848;42.016;23.098;2024-02-15T05:41:32;7.80;;;5.60;;
7613;SDS011;3848;42.016;23.098;2024-02-15T05:43:59;9.83;;;5.90;;
7613;SDS011;3848;42.016;23.098;2024-02-15T05:46:27;10.40;;;5.80;;
7613;SDS011;3848;42.016;23.098;2024-02-15T05:49:11;11.73;;;6.73;;
7613;SDS011;3848;42.016;23.098;2024-02-15T05:51:58;10.43;;;6.37;;
7613;SDS011;3848;42.016;23.098;2024-02-15T05:54:30;11.27;;;7.00;;
7613;SDS011;3848;42.016;23.098;2024-02-15T05:57:01;8.63;;;6.60;;
7613;SDS011;3848;42.016;23.098;2024-02-15T05:59:55;12.60;;;7.37;;
7613;SDS011;3848;42.016;23.098;2024-02-15T06:02:43;11.27;;;7.67;;
7613;SDS011;3848;42.016;23.098;2024-02-15T06:05:13;17.37;;;8.07;;
7613;SDS011;3848;42.016;23.098;2024-02-15T06:07:43;14.87;;;8.67;;
7613;SDS011;3848;42.016;23.098;2024-02-15T06:10:11;24.00;;;9.53;;
7613;SDS011;3848;42.016;23.098;2024-02-15T06:12:41;23.40;;;11.40;;
7613;SDS011;3848;42.016;23.098;2024-02-15T06:15:08;20.13;;;9.10;;
7613;SDS011;3848;42.016;23.098;2024-02-15T06:17:40;20.97;;;8.40;;
7613;SDS011;3848;42.016;23.098;2024-02-15T06:20:10;15.00;;;8.07;;
7613;SDS011;3848;42.016;23.098;2024-02-15T06:22:39;10.30;;;6.97;;
7613;SDS011;3848;42.016;23.098;2024-02-15T06:25:08;8.97;;;6.77;;
7613;SDS011;3848;42.016;23.098;2024-02-15T06:27:36;18.00;;;7.73;;
7613;SDS011;3848;42.016;23.098;2024-02-15T06:30:06;12.33;;;7.63;;
7613;SDS011;3848;42.016;23.098;2024-02-15T06:32:50;21.63;;;8.27;;
7613;SDS011;3848;42.016;23.098;2024-02-15T06:35:34;17.60;;;9.53;;
7613;SDS011;3848;42.016;23.098;2024-02-15T06:38:19;16.03;;;9.00;;
7613;SDS011;3848;42.016;23.098;2024-02-15T06:41:05;20.37;;;8.77;;
7613;SDS011;3848;42.016;23.098;2024-02-15T06:43:32;20.97;;;8.97;;
7613;SDS011;3848;42.016;23.098;2024-02-15T06:46:00;15.23;;;8.93;;
7613;SDS011;3848;42.016;23.098;2024-02-15T06:48:27;18.33;;;9.50;;
7613;SDS011;3848;42.016;23.098;2024-02-15T06:50:56;22.47;;;11.17;;
7613;SDS011;3848;42.016;23.098;2024-02-15T06:53:23;15.87;;;10.20;;
7613;SDS011;3848;42.016;23.098;2024-02-15T06:55:50;17.20;;;9.83;;
7613;SDS011;3848;42.016;23.098;2024-02-15T06:58:19;25.00;;;11.70;;
7613;SDS011;3848;42.016;23.098;2024-02-15T07:00:47;21.30;;;11.00;;
7613;SDS011;3848;42.016;23.098;2024-02-15T07:03:15;19.57;;;11.17;;
7613;SDS011;3848;42.016;23.098;2024-02-15T07:05:43;19.93;;;10.57;;
7613;SDS011;3848;42.016;23.098;2024-02-15T07:08:10;23.10;;;10.73;;
7613;SDS011;3848;42.016;23.098;2024-02-15T07:10:38;13.10;;;9.37;;
7613;SDS011;3848;42.016;23.098;2024-02-15T07:13:05;11.63;;;8.77;;
7613;SDS011;3848;42.016;23.098;2024-02-15T07:15:33;21.23;;;11.03;;
7613;SDS011;3848;42.016;23.098;2024-02-15T07:18:03;20.47;;;12.33;;
7613;SDS011;3848;42.016;23.098;2024-02-15T07:20:32;19.13;;;12.70;;
7613;SDS011;3848;42.016;23.098;2024-02-15T07:22:59;18.67;;;11.87;;
7613;SDS011;3848;42.016;23.098;2024-02-15T07:25:26;19.40;;;12.17;;
7613;SDS011;3848;42.016;23.098;2024-02-15T07:27:53;19.77;;;13.67;;
7613;SDS011;3848;42.016;23.098;2024-02-15T07:30:22;31.00;;;14.87;;
7613;SDS011;3848;42.016;23.098;2024-02-15T07:32:51;22.23;;;14.10;;
7613;SDS011;3848;42.016;23.098;2024-02-15T07:35:18;27.07;;;14.50;;
7613;SDS011;3848;42.016;23.098;2024-02-15T07:37:51;19.30;;;11.43;;
7613;SDS011;3848;42.016;23.098;2024-02-15T07:40:20;31.37;;;17.70;;
7613;SDS011;3848;42.016;23.098;2024-02-15T07:42:48;13.70;;;9.10;;
7613;SDS011;3848;42.016;23.098;2024-02-15T07:45:17;13.90;;;6.83;;
7613;SDS011;3848;42.016;23.098;2024-02-15T07:47:44;13.47;;;6.30;;
7613;SDS011;3848;42.016;23.098;2024-02-15T07:50:15;8.17;;;5.70;;
7613;SDS011;3848;42.016;23.098;2024-02-15T07:52:46;11.63;;;5.67;;
7613;SDS011;3848;42.016;23.098;2024-02-15T07:55:13;9.00;;;5.33;;
7613;SDS011;3848;42.016;23.098;2024-02-15T07:57:40;8.57;;;4.40;;
7613;SDS011;3848;42.016;23.098;2024-02-15T08:00:07;11.93;;;5.37;;
7613;SDS011;3848;42.016;23.098;2024-02-15T08:02:37;11.73;;;4.60;;
7613;SDS011;3848;42.016;23.098;2024-02-15T08:05:06;9.73;;;4.57;;
7613;SDS011;3848;42.016;23.098;2024-02-15T08:07:37;10.13;;;4.57;;
7613;SDS011;3848;42.016;23.098;2024-02-15T08:10:07;10.73;;;4.50;;
7613;SDS011;3848;42.016;23.098;2024-02-15T08:12:38;6.50;;;3.83;;
7613;SDS011;3848;42.016;23.098;2024-02-15T08:15:07;7.87;;;4.43;;
7613;SDS011;3848;42.016;23.098;2024-02-15T08:17:37;8.77;;;4.50;;
7613;SDS011;3848;42.016;23.098;2024-02-15T08:20:07;13.97;;;6.37;;
7613;SDS011;3848;42.016;23.098;2024-02-15T08:22:38;7.33;;;3.83;;
7613;SDS011;3848;42.016;23.098;2024-02-15T08:25:06;8.73;;;4.67;;
7613;SDS011;3848;42.016;23.098;2024-02-15T08:27:37;7.73;;;3.70;;
7613;SDS011;3848;42.016;23.098;2024-02-15T08:30:08;7.83;;;4.27;;
7613;SDS011;3848;42.016;23.098;2024-02-15T08:32:36;5.07;;;3.93;;
7613;SDS011;3848;42.016;23.098;2024-02-15T08:35:05;10.40;;;4.27;;
7613;SDS011;3848;42.016;23.098;2024-02-15T08:37:33;7.67;;;4.67;;
7613;SDS011;3848;42.016;23.098;2024-02-15T08:40:02;10.03;;;4.30;;
7613;SDS011;3848;42.016;23.098;2024-02-15T08:42:30;9.40;;;4.43;;
7613;SDS011;3848;42.016;23.098;2024-02-15T08:44:57;8.33;;;4.17;;
7613;SDS011;3848;42.016;23.098;2024-02-15T08:47:27;8.40;;;5.23;;
7613;SDS011;3848;42.016;23.098;2024-02-15T08:49:54;8.80;;;4.77;;
7613;SDS011;3848;42.016;23.098;2024-02-15T08:52:21;4.93;;;4.20;;
7613;SDS011;3848;42.016;23.098;2024-02-15T08:54:48;12.57;;;4.73;;
7613;SDS011;3848;42.016;23.098;2024-02-15T08:57:19;7.73;;;4.20;;
7613;SDS011;3848;42.016;23.098;2024-02-15T08:59:49;14.67;;;4.00;;
7613;SDS011;3848;42.016;23.098;2024-02-15T09:02:17;8.90;;;4.17;;
7613;SDS011;3848;42.016;23.098;2024-02-15T09:04:47;5.97;;;3.77;;
7613;SDS011;3848;42.016;23.098;2024-02-15T09:07:14;17.20;;;5.37;;
7613;SDS011;3848;42.016;23.098;2024-02-15T09:09:42;9.03;;;4.47;;
7613;SDS011;3848;42.016;23.098;2024-02-15T09:12:09;5.73;;;4.00;;
7613;SDS011;3848;42.016;23.098;2024-02-15T09:14:38;8.23;;;4.40;;
7613;SDS011;3848;42.016;23.098;2024-02-15T09:17:05;7.40;;;4.40;;
7613;SDS011;3848;42.016;23.098;2024-02-15T09:19:33;6.97;;;4.60;;
7613;SDS011;3848;42.016;23.098;2024-02-15T09:22:00;6.83;;;3.70;;
7613;SDS011;3848;42.016;23.098;2024-02-15T09:24:29;15.47;;;4.40;;
7613;SDS011;3848;42.016;23.098;2024-02-15T09:27:01;7.13;;;4.20;;
7613;SDS011;3848;42.016;23.098;2024-02-15T09:29:30;4.63;;;3.80;;
7613;SDS011;3848;42.016;23.098;2024-02-15T09:32:00;11.43;;;3.67;;
7613;SDS011;3848;42.016;23.098;2024-02-15T09:34:28;5.63;;;5.07;;
7613;SDS011;3848;42.016;23.098;2024-02-15T09:36:58;6.90;;;3.63;;
7613;SDS011;3848;42.016;23.098;2024-02-15T09:39:25;13.03;;;4.03;;
7613;SDS011;3848;42.016;23.098;2024-02-15T09:41:53;5.50;;;3.30;;
7613;SDS011;3848;42.016;23.098;2024-02-15T09:44:24;5.80;;;3.93;;
7613;SDS011;3848;42.016;23.098;2024-02-15T09:46:55;6.83;;;3.63;;
7613;SDS011;3848;42.016;23.098;2024-02-15T09:49:33;5.50;;;3.57;;
7613;SDS011;3848;42.016;23.098;2024-02-15T09:52:04;5.10;;;3.33;;
7613;SDS011;3848;42.016;23.098;2024-02-15T09:54:38;6.00;;;3.80;;
7613;SDS011;3848;42.016;23.098;2024-02-15T09:57:08;3.90;;;3.00;;
7613;SDS011;3848;42.016;23.098;2024-02-15T09:59:39;7.03;;;2.73;;
7613;SDS011;3848;42.016;23.098;2024-02-15T10:02:11;4.83;;;3.20;;
7613;SDS011;3848;42.016;23.098;2024-02-15T10:04:40;6.00;;;3.50;;
7613;SDS011;3848;42.016;23.098;2024-02-15T10:07:11;6.03;;;4.00;;
7613;SDS011;3848;42.016;23.098;2024-02-15T10:09:39;3.80;;;2.90;;
7613;SDS011;3848;42.016;23.098;2024-02-15T10:12:08;9.60;;;3.53;;
7613;SDS011;3848;42.016;23.098;2024-02-15T10:14:35;6.67;;;3.17;;
7613;SDS011;3848;42.016;23.098;2024-02-15T10:17:05;4.13;;;2.73;;
7613;SDS011;3848;42.016;23.098;2024-02-15T10:19:43;5.67;;;3.10;;
7613;SDS011;3848;42.016;23.098;2024-02-15T10:22:12;6.70;;;3.17;;
7613;SDS011;3848;42.016;23.098;2024-02-15T10:24:41;6.00;;;3.73;;
7613;SDS011;3848;42.016;23.098;2024-02-15T10:27:08;3.97;;;2.83;;
7613;SDS011;3848;42.016;23.098;2024-02-15T10:29:42;5.33;;;3.43;;
7613;SDS011;3848;42.016;23.098;2024-02-15T10:32:10;4.00;;;3.00;;
7613;SDS011;3848;42.016;23.098;2024-02-15T10:34:44;2.67;;;2.47;;
7613;SDS011;3848;42.016;23.098;2024-02-15T10:37:12;7.47;;;3.07;;
7613;SDS011;3848;42.016;23.098;2024-02-15T10:39:41;8.77;;;3.40;;
7613;SDS011;3848;42.016;23.098;2024-02-15T10:42:08;5.03;;;2.50;;
7613;SDS011;3848;42.016;23.098;2024-02-15T10:44:37;3.20;;;2.83;;
7613;SDS011;3848;42.016;23.098;2024-02-15T10:47:05;9.13;;;3.70;;
7613;SDS011;3848;42.016;23.098;2024-02-15T10:49:33;4.87;;;2.73;;
7613;SDS011;3848;42.016;23.098;2024-02-15T10:52:04;6.27;;;3.20;;
7613;SDS011;3848;42.016;23.098;2024-02-15T10:54:37;4.50;;;2.87;;
7613;SDS011;3848;42.016;23.098;2024-02-15T10:57:12;3.70;;;2.40;;
7613;SDS011;3848;42.016;23.098;2024-02-15T10:59:43;2.90;;;2.70;;
7613;SDS011;3848;42.016;23.098;2024-02-15T11:02:27;2.93;;;2.60;;
7613;SDS011;3848;42.016;23.098;2024-02-15T11:04:55;17.53;;;2.17;;
7613;SDS011;3848;42.016;23.098;2024-02-15T11:07:32;3.53;;;2.47;;
7613;SDS011;3848;42.016;23.098;2024-02-15T11:09:59;9.27;;;2.87;;
7613;SDS011;3848;42.016;23.098;2024-02-15T11:12:27;4.93;;;2.50;;
7613;SDS011;3848;42.016;23.098;2024-02-15T11:14:56;5.80;;;2.83;;
7613;SDS011;3848;42.016;23.098;2024-02-15T11:23:28;2.23;;;2.00;;
7613;SDS011;3848;42.016;23.098;2024-02-15T11:25:59;4.60;;;2.60;;
7613;SDS011;3848;42.016;23.098;2024-02-15T11:28:36;4.10;;;2.30;;
7613;SDS011;3848;42.016;23.098;2024-02-15T11:31:10;6.40;;;2.83;;
7613;SDS011;3848;42.016;23.098;2024-02-15T11:33:58;3.77;;;2.63;;
7613;SDS011;3848;42.016;23.098;2024-02-15T11:36:30;4.53;;;2.07;;
7613;SDS011;3848;42.016;23.098;2024-02-15T11:38:59;2.50;;;2.03;;
7613;SDS011;3848;42.016;23.098;2024-02-15T11:41:29;9.40;;;2.57;;
7613;SDS011;3848;42.016;23.098;2024-02-15T11:43:56;2.50;;;1.80;;
7613;SDS011;3848;42.016;23.098;2024-02-15T11:46:24;2.77;;;2.10;;
7613;SDS011;3848;42.016;23.098;2024-02-15T11:48:55;2.50;;;2.27;;
7613;SDS011;3848;42.016;23.098;2024-02-15T11:51:28;5.67;;;2.60;;
7613;SDS011;3848;42.016;23.098;2024-02-15T11:54:01;3.30;;;2.37;;
7613;SDS011;3848;42.016;23.098;2024-02-15T11:56:32;2.30;;;2.13;;
7613;SDS011;3848;42.016;23.098;2024-02-15T11:59:17;3.93;;;2.40;;
7613;SDS011;3848;42.016;23.098;2024-02-15T12:01:54;1.70;;;1.50;;
7613;SDS011;3848;42.016;23.098;2024-02-15T12:04:39;8.40;;;2.90;;
7613;SDS011;3848;42.016;23.098;2024-02-15T12:07:23;2.50;;;2.30;;
7613;SDS011;3848;42.016;23.098;2024-02-15T12:10:09;3.50;;;2.17;;
7613;SDS011;3848;42.016;23.098;2024-02-15T12:12:59;1.87;;;1.67;;
7613;SDS011;3848;42.016;23.098;2024-02-15T12:15:55;2.00;;;1.80;;
7613;SDS011;3848;42.016;23.098;2024-02-15T12:18:40;2.73;;;2.03;;
7613;SDS011;3848;42.016;23.098;2024-02-15T12:21:08;3.20;;;1.97;;
7613;SDS011;3848;42.016;23.098;2024-02-15T12:23:39;8.03;;;2.30;;
7613;SDS011;3848;42.016;23.098;2024-02-15T12:26:09;3.37;;;1.70;;
7613;SDS011;3848;42.016;23.098;2024-02-15T12:28:39;3.93;;;1.90;;
7613;SDS011;3848;42.016;23.098;2024-02-15T12:31:08;2.47;;;2.07;;
7613;SDS011;3848;42.016;23.098;2024-02-15T12:33:38;7.17;;;2.40;;
7613;SDS011;3848;42.016;23.098;2024-02-15T12:36:05;2.57;;;1.70;;
7613;SDS011;3848;42.016;23.098;2024-02-15T12:38:34;3.23;;;1.83;;
7613;SDS011;3848;42.016;23.098;2024-02-15T12:41:21;2.60;;;1.70;;
7613;SDS011;3848;42.016;23.098;2024-02-15T12:43:52;2.23;;;1.83;;
7613;SDS011;3848;42.016;23.098;2024-02-15T12:46:19;2.70;;;2.20;;
7613;SDS011;3848;42.016;23.098;2024-02-15T12:48:47;18.80;;;1.77;;
7613;SDS011;3848;42.016;23.098;2024-02-15T12:51:14;1.77;;;1.53;;
7613;SDS011;3848;42.016;23.098;2024-02-15T12:53:42;2.83;;;1.90;;
7613;SDS011;3848;42.016;23.098;2024-02-15T12:56:09;4.93;;;2.37;;
7613;SDS011;3848;42.016;23.098;2024-02-15T12:58:41;3.60;;;1.73;;
7613;SDS011;3848;42.016;23.098;2024-02-15T13:01:09;4.30;;;2.50;;
7613;SDS011;3848;42.016;23.098;2024-02-15T13:03:39;5.57;;;2.43;;
7613;SDS011;3848;42.016;23.098;2024-02-15T13:06:08;5.63;;;3.03;;
7613;SDS011;3848;42.016;23.098;2024-02-15T13:08:35;3.30;;;2.37;;
7613;SDS011;3848;42.016;23.098;2024-02-15T13:11:02;1.47;;;1.40;;
7613;SDS011;3848;42.016;23.098;2024-02-15T13:13:30;2.40;;;2.10;;
7613;SDS011;3848;42.016;23.098;2024-02-15T13:16:01;6.60;;;2.37;;
7613;SDS011;3848;42.016;23.098;2024-02-15T13:18:28;4.87;;;2.57;;
7613;SDS011;3848;42.016;23.098;2024-02-15T13:20:55;7.13;;;2.20;;
7613;SDS011;3848;42.016;23.098;2024-02-15T13:23:22;6.70;;;2.53;;
7613;SDS011;3848;42.016;23.098;2024-02-15T13:25:50;2.90;;;2.10;;
7613;SDS011;3848;42.016;23.098;2024-02-15T13:28:18;4.37;;;2.30;;
7613;SDS011;3848;42.016;23.098;2024-02-15T13:30:45;13.43;;;2.57;;
7613;SDS011;3848;42.016;23.098;2024-02-15T13:33:21;2.63;;;2.23;;
7613;SDS011;3848;42.016;23.098;2024-02-15T13:35:49;6.37;;;2.20;;
7613;SDS011;3848;42.016;23.098;2024-02-15T13:38:16;2.23;;;2.03;;
7613;SDS011;3848;42.016;23.098;2024-02-15T13:40:48;1.60;;;1.50;;
7613;SDS011;3848;42.016;23.098;2024-02-15T13:43:16;2.20;;;2.00;;
7613;SDS011;3848;42.016;23.098;2024-02-15T13:45:46;2.87;;;1.63;;
7613;SDS011;3848;42.016;23.098;2024-02-15T13:48:14;4.50;;;2.20;;
7613;SDS011;3848;42.016;23.098;2024-02-15T13:50:43;3.90;;;2.13;;
7613;SDS011;3848;42.016;23.098;2024-02-15T13:53:10;2.37;;;1.97;;
7613;SDS011;3848;42.016;23.098;2024-02-15T13:55:38;2.83;;;1.47;;
7613;SDS011;3848;42.016;23.098;2024-02-15T13:58:05;1.97;;;1.87;;
7613;SDS011;3848;42.016;23.098;2024-02-15T14:00:37;2.67;;;1.90;;
7613;SDS011;3848;42.016;23.098;2024-02-15T14:03:07;5.57;;;2.23;;
7613;SDS011;3848;42.016;23.098;2024-02-15T14:05:35;2.70;;;2.00;;
7613;SDS011;3848;42.016;23.098;2024-02-15T14:08:06;2.13;;;1.93;;
7613;SDS011;3848;42.016;23.098;2024-02-15T14:10:36;1.93;;;1.60;;
7613;SDS011;3848;42.016;23.098;2024-02-15T14:13:03;1.97;;;1.60;;
7613;SDS011;3848;42.016;23.098;2024-02-15T14:15:33;2.00;;;1.80;;
7613;SDS011;3848;42.016;23.098;2024-02-15T14:18:02;2.80;;;1.80;;
7613;SDS011;3848;42.016;23.098;2024-02-15T14:20:30;3.10;;;1.87;;
7613;SDS011;3848;42.016;23.098;2024-02-15T14:22:57;6.73;;;2.30;;
7613;SDS011;3848;42.016;23.098;2024-02-15T14:25:32;3.03;;;2.17;;
7613;SDS011;3848;42.016;23.098;2024-02-15T14:27:59;4.97;;;1.90;;
7613;SDS011;3848;42.016;23.098;2024-02-15T14:30:26;2.23;;;1.70;;
7613;SDS011;3848;42.016;23.098;2024-02-15T14:33:11;3.90;;;1.97;;
7613;SDS011;3848;42.016;23.098;2024-02-15T14:35:41;3.47;;;2.00;;
7613;SDS011;3848;42.016;23.098;2024-02-15T14:38:09;4.87;;;2.30;;
7613;SDS011;3848;42.016;23.098;2024-02-15T14:40:40;6.97;;;2.63;;
7613;SDS011;3848;42.016;23.098;2024-02-15T14:43:10;3.60;;;1.80;;
7613;SDS011;3848;42.016;23.098;2024-02-15T14:45:38;2.30;;;2.10;;
7613;SDS011;3848;42.016;23.098;2024-02-15T14:48:07;2.10;;;2.00;;
7613;SDS011;3848;42.016;23.098;2024-02-15T14:50:35;2.90;;;2.30;;
7613;SDS011;3848;42.016;23.098;2024-02-15T14:53:03;2.27;;;2.03;;
7613;SDS011;3848;42.016;23.098;2024-02-15T14:55:33;7.23;;;2.47;;
7613;SDS011;3848;42.016;23.098;2024-02-15T14:58:01;4.07;;;2.30;;
7613;SDS011;3848;42.016;23.098;2024-02-15T15:00:31;2.43;;;2.20;;
7613;SDS011;3848;42.016;23.098;2024-02-15T15:02:58;5.70;;;2.47;;
7613;SDS011;3848;42.016;23.098;2024-02-15T15:05:25;3.17;;;2.17;;
7613;SDS011;3848;42.016;23.098;2024-02-15T15:08:09;3.67;;;2.87;;
7613;SDS011;3848;42.016;23.098;2024-02-15T15:10:54;3.97;;;3.00;;
7613;SDS011;3848;42.016;23.098;2024-02-15T15:13:41;6.27;;;2.40;;
7613;SDS011;3848;42.016;23.098;2024-02-15T15:16:08;4.80;;;2.33;;
7613;SDS011;3848;42.016;23.098;2024-02-15T15:18:39;3.00;;;2.33;;